sensor_id;sensor_type;location;lat;lon;timestamp;P1;durP1;ratioP1;P2;durP2;ratioP2
26502;SDS011;14177;51.520;6.764;2023-01-19T00:01:05;15.43;;;8.02;;
26502;SDS011;14177;51.520;6.764;2023-01-19T00:03:33;14.45;;;8.32;;
26502;SDS011;14177;51.520;6.764;2023-01-19T00:06:04;15.82;;;8.43;;
26502;SDS011;14177;51.520;6.764;2023-01-19T00:08:35;16.58;;;9.02;;
26502;SDS011;14177;51.520;6.764;2023-01-19T00:11:02;14.52;;;8.75;;
26502;SDS011;14177;51.520;6.764;2023-01-19T00:13:30;19.48;;;10.25;;
26502;SDS011;14177;51.520;6.764;2023-01-19T00:15:58;17.40;;;8.88;;
26502;SDS011;14177;51.520;6.764;2023-01-19T00:18:24;16.08;;;8.73;;
26502;SDS011;14177;51.520;6.764;2023-01-19T00:20:51;13.68;;;8.10;;
26502;SDS011;14177;51.520;6.764;2023-01-19T00:23:18;16.63;;;8.05;;
26502;SDS011;14177;51.520;6.764;2023-01-19T00:25:46;16.13;;;9.15;;
26502;SDS011;14177;51.520;6.764;2023-01-19T00:28:14;17.70;;;8.80;;
26502;SDS011;14177;51.520;6.764;2023-01-19T00:30:44;17.80;;;8.70;;
26502;SDS011;14177;51.520;6.764;2023-01-19T00:33:11;14.02;;;9.10;;
26502;SDS011;14177;51.520;6.764;2023-01-19T00:35:40;14.93;;;8.45;;
26502;SDS011;14177;51.520;6.764;2023-01-19T00:38:08;22.10;;;9.30;;
26502;SDS011;14177;51.520;6.764;2023-01-19T00:40:37;19.58;;;9.90;;
26502;SDS011;14177;51.520;6.764;2023-01-19T00:43:12;26.05;;;11.38;;
26502;SDS011;14177;51.520;6.764;2023-01-19T00:45:38;23.23;;;11.23;;
26502;SDS011;14177;51.520;6.764;2023-01-19T00:48:06;26.40;;;11.63;;
26502;SDS011;14177;51.520;6.764;2023-01-19T00:50:33;21.23;;;10.90;;
26502;SDS011;14177;51.520;6.764;2023-01-19T00:53:00;24.65;;;10.80;;
26502;SDS011;14177;51.520;6.764;2023-01-19T00:55:29;18.40;;;10.10;;
26502;SDS011;14177;51.520;6.764;2023-01-19T00:57:58;20.27;;;9.75;;
26502;SDS011;14177;51.520;6.764;2023-01-19T01:00:25;21.90;;;10.05;;
26502;SDS011;14177;51.520;6.764;2023-01-19T01:02:52;21.05;;;10.55;;
26502;SDS011;14177;51.520;6.764;2023-01-19T01:05:19;18.83;;;10.18;;
26502;SDS011;14177;51.520;6.764;2023-01-19T01:07:47;22.60;;;10.00;;
26502;SDS011;14177;51.520;6.764;2023-01-19T01:10:16;18.08;;;9.82;;
26502;SDS011;14177;51.520;6.764;2023-01-19T01:12:50;19.63;;;8.98;;
26502;SDS011;14177;51.520;6.764;2023-01-19T01:15:23;21.05;;;8.65;;
26502;SDS011;14177;51.520;6.764;2023-01-19T01:17:52;18.02;;;8.98;;
26502;SDS011;14177;51.520;6.764;2023-01-19T01:20:21;17.00;;;9.50;;
26502;SDS011;14177;51.520;6.764;2023-01-19T01:22:53;16.85;;;8.80;;
26502;SDS011;14177;51.520;6.764;2023-01-19T01:25:22;18.25;;;9.45;;
26502;SDS011;14177;51.520;6.764;2023-01-19T01:27:51;16.05;;;8.88;;
26502;SDS011;14177;51.520;6.764;2023-01-19T01:30:20;21.67;;;11.00;;
26502;SDS011;14177;51.520;6.764;2023-01-19T01:32:47;13.27;;;8.20;;
26502;SDS011;14177;51.520;6.764;2023-01-19T01:35:15;14.57;;;8.43;;
26502;SDS011;14177;51.520;6.764;2023-01-19T01:37:42;17.70;;;9.93;;
26502;SDS011;14177;51.520;6.764;2023-01-19T01:40:10;17.27;;;10.13;;
26502;SDS011;14177;51.520;6.764;2023-01-19T01:42:40;18.10;;;10.88;;
26502;SDS011;14177;51.520;6.764;2023-01-19T01:45:51;13.55;;;8.93;;
26502;SDS011;14177;51.520;6.764;2023-01-19T01:48:08;19.00;;;8.55;;
26502;SDS011;14177;51.520;6.764;2023-01-19T01:50:46;15.90;;;8.82;;
26502;SDS011;14177;51.520;6.764;2023-01-19T01:53:37;13.27;;;7.60;;
26502;SDS011;14177;51.520;6.764;2023-01-19T01:56:08;15.27;;;7.95;;
26502;SDS011;14177;51.520;6.764;2023-01-19T01:58:40;21.10;;;9.10;;
26502;SDS011;14177;51.520;6.764;2023-01-19T02:01:08;16.77;;;10.05;;
26502;SDS011;14177;51.520;6.764;2023-01-19T02:03:54;17.92;;;9.50;;
26502;SDS011;14177;51.520;6.764;2023-01-19T02:06:23;16.33;;;8.70;;
26502;SDS011;14177;51.520;6.764;2023-01-19T02:08:52;14.20;;;9.00;;
26502;SDS011;14177;51.520;6.764;2023-01-19T02:11:47;22.63;;;9.50;;
26502;SDS011;14177;51.520;6.764;2023-01-19T02:14:34;15.35;;;9.15;;
26502;SDS011;14177;51.520;6.764;2023-01-19T02:17:02;15.73;;;9.25;;
26502;SDS011;14177;51.520;6.764;2023-01-19T02:19:41;15.32;;;8.68;;
26502;SDS011;14177;51.520;6.764;2023-01-19T02:22:14;18.58;;;8.85;;
26502;SDS011;14177;51.520;6.764;2023-01-19T02:25:02;16.33;;;8.85;;
26502;SDS011;14177;51.520;6.764;2023-01-19T02:27:30;14.95;;;8.68;;
26502;SDS011;14177;51.520;6.764;2023-01-19T02:29:58;17.88;;;9.13;;
26502;SDS011;14177;51.520;6.764;2023-01-19T02:32:28;14.55;;;8.45;;
26502;SDS011;14177;51.520;6.764;2023-01-19T02:34:56;12.10;;;7.68;;
26502;SDS011;14177;51.520;6.764;2023-01-19T02:37:23;12.95;;;7.47;;
26502;SDS011;14177;51.520;6.764;2023-01-19T02:39:54;10.52;;;7.43;;
26502;SDS011;14177;51.520;6.764;2023-01-19T02:42:28;13.25;;;8.13;;
26502;SDS011;14177;51.520;6.764;2023-01-19T02:45:02;13.50;;;8.45;;
26502;SDS011;14177;51.520;6.764;2023-01-19T02:47:45;16.08;;;8.07;;
26502;SDS011;14177;51.520;6.764;2023-01-19T02:53:30;11.70;;;7.03;;
26502;SDS011;14177;51.520;6.764;2023-01-19T02:59:23;17.48;;;8.65;;
26502;SDS011;14177;51.520;6.764;2023-01-19T03:07:57;16.20;;;9.27;;
26502;SDS011;14177;51.520;6.764;2023-01-19T03:11:09;16.95;;;10.52;;
26502;SDS011;14177;51.520;6.764;2023-01-19T03:19:20;14.13;;;8.40;;
26502;SDS011;14177;51.520;6.764;2023-01-19T03:21:58;19.25;;;8.35;;
26502;SDS011;14177;51.520;6.764;2023-01-19T03:24:33;22.77;;;9.77;;
26502;SDS011;14177;51.520;6.764;2023-01-19T03:27:09;17.83;;;8.40;;
26502;SDS011;14177;51.520;6.764;2023-01-19T03:29:47;16.73;;;7.65;;
26502;SDS011;14177;51.520;6.764;2023-01-19T03:32:21;17.67;;;9.43;;
26502;SDS011;14177;51.520;6.764;2023-01-19T03:35:01;13.68;;;8.00;;
26502;SDS011;14177;51.520;6.764;2023-01-19T03:37:36;16.50;;;9.02;;
26502;SDS011;14177;51.520;6.764;2023-01-19T03:40:07;19.85;;;9.43;;
26502;SDS011;14177;51.520;6.764;2023-01-19T03:42:36;19.52;;;10.25;;
26502;SDS011;14177;51.520;6.764;2023-01-19T03:45:06;22.75;;;9.95;;
26502;SDS011;14177;51.520;6.764;2023-01-19T03:47:34;17.33;;;8.77;;
26502;SDS011;14177;51.520;6.764;2023-01-19T03:50:02;22.27;;;9.30;;
26502;SDS011;14177;51.520;6.764;2023-01-19T03:52:36;24.38;;;10.50;;
26502;SDS011;14177;51.520;6.764;2023-01-19T03:55:03;17.50;;;9.02;;
26502;SDS011;14177;51.520;6.764;2023-01-19T03:57:32;18.52;;;10.10;;
26502;SDS011;14177;51.520;6.764;2023-01-19T03:59:58;17.77;;;10.07;;
26502;SDS011;14177;51.520;6.764;2023-01-19T04:02:25;17.25;;;7.85;;
26502;SDS011;14177;51.520;6.764;2023-01-19T04:04:52;16.85;;;9.65;;
26502;SDS011;14177;51.520;6.764;2023-01-19T04:07:19;14.50;;;8.13;;
26502;SDS011;14177;51.520;6.764;2023-01-19T04:09:46;14.70;;;7.60;;
26502;SDS011;14177;51.520;6.764;2023-01-19T04:12:13;14.13;;;7.90;;
26502;SDS011;14177;51.520;6.764;2023-01-19T04:14:40;20.00;;;10.68;;
26502;SDS011;14177;51.520;6.764;2023-01-19T04:17:07;16.13;;;7.60;;
26502;SDS011;14177;51.520;6.764;2023-01-19T04:19:35;14.32;;;8.90;;
26502;SDS011;14177;51.520;6.764;2023-01-19T04:22:02;17.58;;;9.48;;
26502;SDS011;14177;51.520;6.764;2023-01-19T04:24:30;19.10;;;9.98;;
26502;SDS011;14177;51.520;6.764;2023-01-19T04:26:57;20.42;;;10.40;;
26502;SDS011;14177;51.520;6.764;2023-01-19T04:29:24;17.70;;;8.60;;
26502;SDS011;14177;51.520;6.764;2023-01-19T04:31:51;23.25;;;10.68;;
26502;SDS011;14177;51.520;6.764;2023-01-19T04:41:58;14.25;;;8.25;;
26502;SDS011;14177;51.520;6.764;2023-01-19T04:49:03;13.13;;;8.05;;
26502;SDS011;14177;51.520;6.764;2023-01-19T04:54:55;14.15;;;7.75;;
26502;SDS011;14177;51.520;6.764;2023-01-19T04:57:52;11.80;;;7.25;;
26502;SDS011;14177;51.520;6.764;2023-01-19T05:03:45;13.63;;;7.60;;
26502;SDS011;14177;51.520;6.764;2023-01-19T05:50:19;14.18;;;6.40;;
26502;SDS011;14177;51.520;6.764;2023-01-19T05:58:57;8.32;;;5.70;;
26502;SDS011;14177;51.520;6.764;2023-01-19T06:36:37;7.05;;;4.90;;
26502;SDS011;14177;51.520;6.764;2023-01-19T06:39:23;8.00;;;5.63;;
26502;SDS011;14177;51.520;6.764;2023-01-19T06:42:17;8.18;;;5.43;;
26502;SDS011;14177;51.520;6.764;2023-01-19T06:44:44;9.18;;;5.13;;
26502;SDS011;14177;51.520;6.764;2023-01-19T06:47:14;6.60;;;4.65;;
26502;SDS011;14177;51.520;6.764;2023-01-19T06:49:42;6.15;;;4.75;;
26502;SDS011;14177;51.520;6.764;2023-01-19T06:52:31;7.45;;;4.55;;
26502;SDS011;14177;51.520;6.764;2023-01-19T06:55:00;9.75;;;4.93;;
26502;SDS011;14177;51.520;6.764;2023-01-19T06:57:27;7.32;;;4.50;;
26502;SDS011;14177;51.520;6.764;2023-01-19T06:59:57;6.70;;;4.93;;
26502;SDS011;14177;51.520;6.764;2023-01-19T07:02:50;5.80;;;3.17;;
26502;SDS011;14177;51.520;6.764;2023-01-19T07:05:18;8.75;;;5.13;;
26502;SDS011;14177;51.520;6.764;2023-01-19T07:07:53;7.38;;;4.82;;
26502;SDS011;14177;51.520;6.764;2023-01-19T07:12:49;6.50;;;4.38;;
26502;SDS011;14177;51.520;6.764;2023-01-19T07:15:18;7.13;;;5.32;;
26502;SDS011;14177;51.520;6.764;2023-01-19T07:17:47;11.35;;;5.78;;
26502;SDS011;14177;51.520;6.764;2023-01-19T07:20:15;7.15;;;5.38;;
26502;SDS011;14177;51.520;6.764;2023-01-19T07:22:44;8.15;;;5.13;;
26502;SDS011;14177;51.520;6.764;2023-01-19T07:25:12;5.53;;;4.68;;
26502;SDS011;14177;51.520;6.764;2023-01-19T07:27:39;6.90;;;4.55;;
26502;SDS011;14177;51.520;6.764;2023-01-19T07:30:09;8.18;;;5.65;;
26502;SDS011;14177;51.520;6.764;2023-01-19T07:32:36;12.55;;;6.13;;
26502;SDS011;14177;51.520;6.764;2023-01-19T07:35:04;9.75;;;5.85;;
26502;SDS011;14177;51.520;6.764;2023-01-19T07:37:31;10.32;;;5.97;;
26502;SDS011;14177;51.520;6.764;2023-01-19T07:39:58;9.20;;;5.97;;
26502;SDS011;14177;51.520;6.764;2023-01-19T07:42:25;8.05;;;5.90;;
26502;SDS011;14177;51.520;6.764;2023-01-19T07:44:52;10.32;;;6.03;;
26502;SDS011;14177;51.520;6.764;2023-01-19T07:47:19;10.40;;;6.55;;
26502;SDS011;14177;51.520;6.764;2023-01-19T07:49:46;7.60;;;5.65;;
26502;SDS011;14177;51.520;6.764;2023-01-19T07:52:13;9.07;;;5.80;;
26502;SDS011;14177;51.520;6.764;2023-01-19T07:54:40;8.68;;;5.65;;
26502;SDS011;14177;51.520;6.764;2023-01-19T07:57:07;9.20;;;5.90;;
26502;SDS011;14177;51.520;6.764;2023-01-19T07:59:34;9.57;;;6.38;;
26502;SDS011;14177;51.520;6.764;2023-01-19T08:02:01;10.73;;;6.10;;
26502;SDS011;14177;51.520;6.764;2023-01-19T08:04:28;11.32;;;6.13;;
26502;SDS011;14177;51.520;6.764;2023-01-19T08:06:55;10.63;;;6.15;;
26502;SDS011;14177;51.520;6.764;2023-01-19T08:09:22;9.02;;;5.05;;
26502;SDS011;14177;51.520;6.764;2023-01-19T08:11:49;12.35;;;6.10;;
26502;SDS011;14177;51.520;6.764;2023-01-19T08:14:16;8.23;;;5.63;;
26502;SDS011;14177;51.520;6.764;2023-01-19T08:16:43;8.98;;;5.82;;
26502;SDS011;14177;51.520;6.764;2023-01-19T08:19:11;12.95;;;6.43;;
26502;SDS011;14177;51.520;6.764;2023-01-19T08:21:37;13.43;;;6.63;;
26502;SDS011;14177;51.520;6.764;2023-01-19T08:24:04;10.23;;;6.80;;
26502;SDS011;14177;51.520;6.764;2023-01-19T08:26:33;11.93;;;5.88;;
26502;SDS011;14177;51.520;6.764;2023-01-19T08:29:01;9.95;;;6.45;;
26502;SDS011;14177;51.520;6.764;2023-01-19T08:31:30;12.73;;;7.47;;
26502;SDS011;14177;51.520;6.764;2023-01-19T08:33:57;11.25;;;7.07;;
26502;SDS011;14177;51.520;6.764;2023-01-19T08:36:24;11.20;;;6.95;;
26502;SDS011;14177;51.520;6.764;2023-01-19T08:38:52;9.68;;;7.00;;
26502;SDS011;14177;51.520;6.764;2023-01-19T08:41:19;10.27;;;7.00;;
26502;SDS011;14177;51.520;6.764;2023-01-19T08:43:46;12.13;;;7.43;;
26502;SDS011;14177;51.520;6.764;2023-01-19T08:46:13;10.95;;;6.78;;
26502;SDS011;14177;51.520;6.764;2023-01-19T08:48:46;10.82;;;7.18;;
26502;SDS011;14177;51.520;6.764;2023-01-19T08:51:14;14.20;;;7.20;;
26502;SDS011;14177;51.520;6.764;2023-01-19T08:53:42;12.10;;;8.35;;
26502;SDS011;14177;51.520;6.764;2023-01-19T08:56:09;12.77;;;7.85;;
26502;SDS011;14177;51.520;6.764;2023-01-19T08:58:39;14.20;;;9.02;;
26502;SDS011;14177;51.520;6.764;2023-01-19T09:01:08;15.93;;;8.77;;
26502;SDS011;14177;51.520;6.764;2023-01-19T09:03:39;14.27;;;8.40;;
26502;SDS011;14177;51.520;6.764;2023-01-19T09:06:06;13.18;;;8.25;;
26502;SDS011;14177;51.520;6.764;2023-01-19T09:08:35;14.48;;;8.50;;
26502;SDS011;14177;51.520;6.764;2023-01-19T09:11:03;11.60;;;7.95;;
26502;SDS011;14177;51.520;6.764;2023-01-19T09:13:36;13.27;;;8.50;;
26502;SDS011;14177;51.520;6.764;2023-01-19T09:16:03;15.07;;;8.68;;
26502;SDS011;14177;51.520;6.764;2023-01-19T09:18:34;9.73;;;6.82;;
26502;SDS011;14177;51.520;6.764;2023-01-19T09:21:01;11.80;;;7.80;;
26502;SDS011;14177;51.520;6.764;2023-01-19T09:23:29;14.50;;;8.52;;
26502;SDS011;14177;51.520;6.764;2023-01-19T09:25:57;13.27;;;7.90;;
26502;SDS011;14177;51.520;6.764;2023-01-19T09:28:28;11.95;;;7.88;;
26502;SDS011;14177;51.520;6.764;2023-01-19T09:30:55;12.07;;;8.15;;
26502;SDS011;14177;51.520;6.764;2023-01-19T09:33:23;12.48;;;7.93;;
26502;SDS011;14177;51.520;6.764;2023-01-19T09:35:50;14.63;;;9.07;;
26502;SDS011;14177;51.520;6.764;2023-01-19T09:38:18;12.63;;;7.95;;
26502;SDS011;14177;51.520;6.764;2023-01-19T09:40:52;15.27;;;9.65;;
26502;SDS011;14177;51.520;6.764;2023-01-19T09:43:32;16.58;;;7.90;;
26502;SDS011;14177;51.520;6.764;2023-01-19T09:49:11;15.80;;;8.93;;
26502;SDS011;14177;51.520;6.764;2023-01-19T09:51:47;15.13;;;9.63;;
26502;SDS011;14177;51.520;6.764;2023-01-19T09:54:35;16.38;;;8.82;;
26502;SDS011;14177;51.520;6.764;2023-01-19T09:57:12;16.52;;;9.68;;
26502;SDS011;14177;51.520;6.764;2023-01-19T09:59:40;16.20;;;10.18;;
26502;SDS011;14177;51.520;6.764;2023-01-19T10:08:23;20.58;;;10.45;;
26502;SDS011;14177;51.520;6.764;2023-01-19T10:11:27;20.98;;;10.13;;
26502;SDS011;14177;51.520;6.764;2023-01-19T10:14:25;19.70;;;10.00;;
26502;SDS011;14177;51.520;6.764;2023-01-19T10:23:34;21.33;;;10.38;;
26502;SDS011;14177;51.520;6.764;2023-01-19T10:26:08;19.60;;;10.82;;
26502;SDS011;14177;51.520;6.764;2023-01-19T10:28:53;17.67;;;10.13;;
26502;SDS011;14177;51.520;6.764;2023-01-19T10:32:02;20.00;;;10.82;;
26502;SDS011;14177;51.520;6.764;2023-01-19T10:34:35;20.95;;;9.73;;
26502;SDS011;14177;51.520;6.764;2023-01-19T10:42:34;23.10;;;11.15;;
26502;SDS011;14177;51.520;6.764;2023-01-19T10:45:25;23.42;;;11.30;;
26502;SDS011;14177;51.520;6.764;2023-01-19T10:47:57;25.27;;;11.23;;
26502;SDS011;14177;51.520;6.764;2023-01-19T10:53:02;18.65;;;10.30;;
26502;SDS011;14177;51.520;6.764;2023-01-19T10:55:35;21.35;;;11.00;;
26502;SDS011;14177;51.520;6.764;2023-01-19T10:58:05;24.50;;;10.93;;
26502;SDS011;14177;51.520;6.764;2023-01-19T11:00:53;21.90;;;11.93;;
26502;SDS011;14177;51.520;6.764;2023-01-19T11:03:27;26.13;;;10.98;;
26502;SDS011;14177;51.520;6.764;2023-01-19T11:06:17;28.40;;;11.82;;
26502;SDS011;14177;51.520;6.764;2023-01-19T11:11:56;21.58;;;11.85;;
26502;SDS011;14177;51.520;6.764;2023-01-19T11:14:23;26.38;;;11.98;;
26502;SDS011;14177;51.520;6.764;2023-01-19T11:16:55;29.33;;;12.32;;
26502;SDS011;14177;51.520;6.764;2023-01-19T11:19:28;27.05;;;13.05;;
26502;SDS011;14177;51.520;6.764;2023-01-19T11:24:50;22.33;;;11.43;;
26502;SDS011;14177;51.520;6.764;2023-01-19T11:27:20;31.65;;;12.98;;
26502;SDS011;14177;51.520;6.764;2023-01-19T11:30:15;30.05;;;13.98;;
26502;SDS011;14177;51.520;6.764;2023-01-19T11:32:47;27.52;;;13.32;;
26502;SDS011;14177;51.520;6.764;2023-01-19T11:35:34;24.20;;;14.13;;
26502;SDS011;14177;51.520;6.764;2023-01-19T11:40:40;25.02;;;13.27;;
26502;SDS011;14177;51.520;6.764;2023-01-19T11:43:23;29.83;;;13.38;;
26502;SDS011;14177;51.520;6.764;2023-01-19T11:46:14;29.85;;;12.77;;
26502;SDS011;14177;51.520;6.764;2023-01-19T11:48:47;23.20;;;11.55;;
26502;SDS011;14177;51.520;6.764;2023-01-19T11:51:28;29.35;;;13.32;;
26502;SDS011;14177;51.520;6.764;2023-01-19T11:54:05;25.08;;;12.32;;
26502;SDS011;14177;51.520;6.764;2023-01-19T11:56:55;27.08;;;13.95;;
26502;SDS011;14177;51.520;6.764;2023-01-19T11:59:25;24.50;;;12.88;;
26502;SDS011;14177;51.520;6.764;2023-01-19T12:01:53;32.40;;;14.32;;
26502;SDS011;14177;51.520;6.764;2023-01-19T12:04:29;37.10;;;13.73;;
26502;SDS011;14177;51.520;6.764;2023-01-19T12:07:04;25.58;;;13.55;;
26502;SDS011;14177;51.520;6.764;2023-01-19T12:09:38;29.50;;;13.85;;
26502;SDS011;14177;51.520;6.764;2023-01-19T12:12:27;28.13;;;13.70;;
26502;SDS011;14177;51.520;6.764;2023-01-19T12:15:07;28.15;;;13.48;;
26502;SDS011;14177;51.520;6.764;2023-01-19T12:17:51;28.70;;;13.45;;
26502;SDS011;14177;51.520;6.764;2023-01-19T12:20:26;30.65;;;14.30;;
26502;SDS011;14177;51.520;6.764;2023-01-19T12:23:06;29.25;;;13.15;;
26502;SDS011;14177;51.520;6.764;2023-01-19T12:26:27;28.55;;;13.43;;
26502;SDS011;14177;51.520;6.764;2023-01-19T12:29:13;28.38;;;13.68;;
26502;SDS011;14177;51.520;6.764;2023-01-19T12:31:45;28.33;;;14.18;;
26502;SDS011;14177;51.520;6.764;2023-01-19T12:34:48;26.55;;;13.38;;
26502;SDS011;14177;51.520;6.764;2023-01-19T12:39:59;26.67;;;13.65;;
26502;SDS011;14177;51.520;6.764;2023-01-19T12:42:55;29.00;;;13.63;;
26502;SDS011;14177;51.520;6.764;2023-01-19T12:45:35;25.10;;;12.52;;
26502;SDS011;14177;51.520;6.764;2023-01-19T12:50:51;29.10;;;13.40;;
26502;SDS011;14177;51.520;6.764;2023-01-19T12:53:19;25.05;;;12.65;;
26502;SDS011;14177;51.520;6.764;2023-01-19T12:56:06;29.90;;;13.27;;
26502;SDS011;14177;51.520;6.764;2023-01-19T12:58:35;28.08;;;11.85;;
26502;SDS011;14177;51.520;6.764;2023-01-19T13:01:31;29.02;;;13.15;;
26502;SDS011;14177;51.520;6.764;2023-01-19T13:04:41;30.77;;;14.45;;
26502;SDS011;14177;51.520;6.764;2023-01-19T13:18:22;31.20;;;13.45;;
26502;SDS011;14177;51.520;6.764;2023-01-19T13:21:33;27.48;;;12.77;;
26502;SDS011;14177;51.520;6.764;2023-01-19T13:24:33;24.50;;;12.60;;
26502;SDS011;14177;51.520;6.764;2023-01-19T13:27:41;25.00;;;11.57;;
26502;SDS011;14177;51.520;6.764;2023-01-19T13:30:32;27.00;;;13.00;;
26502;SDS011;14177;51.520;6.764;2023-01-19T13:36:32;22.63;;;12.43;;
26502;SDS011;14177;51.520;6.764;2023-01-19T13:42:45;26.27;;;12.48;;
26502;SDS011;14177;51.520;6.764;2023-01-19T13:46:13;26.95;;;10.77;;
26502;SDS011;14177;51.520;6.764;2023-01-19T13:49:04;24.05;;;11.15;;
26502;SDS011;14177;51.520;6.764;2023-01-19T13:59:27;20.05;;;11.30;;
26502;SDS011;14177;51.520;6.764;2023-01-19T14:02:09;25.83;;;11.30;;
26502;SDS011;14177;51.520;6.764;2023-01-19T14:04:47;23.80;;;10.85;;
26502;SDS011;14177;51.520;6.764;2023-01-19T14:07:16;25.20;;;9.25;;
26502;SDS011;14177;51.520;6.764;2023-01-19T14:10:10;28.30;;;12.32;;
26502;SDS011;14177;51.520;6.764;2023-01-19T14:13:05;18.58;;;9.75;;
26502;SDS011;14177;51.520;6.764;2023-01-19T14:16:00;22.08;;;10.65;;
26502;SDS011;14177;51.520;6.764;2023-01-19T14:18:33;22.25;;;11.05;;
26502;SDS011;14177;51.520;6.764;2023-01-19T14:21:06;19.55;;;10.45;;
26502;SDS011;14177;51.520;6.764;2023-01-19T14:29:22;17.65;;;9.88;;
26502;SDS011;14177;51.520;6.764;2023-01-19T14:34:32;22.17;;;9.65;;
26502;SDS011;14177;51.520;6.764;2023-01-19T14:37:46;21.58;;;9.85;;
26502;SDS011;14177;51.520;6.764;2023-01-19T14:45:27;21.27;;;10.43;;
26502;SDS011;14177;51.520;6.764;2023-01-19T14:48:03;23.33;;;9.27;;
26502;SDS011;14177;51.520;6.764;2023-01-19T14:50:43;17.08;;;9.32;;
26502;SDS011;14177;51.520;6.764;2023-01-19T14:53:28;23.02;;;10.10;;
26502;SDS011;14177;51.520;6.764;2023-01-19T14:56:04;17.38;;;8.70;;
26502;SDS011;14177;51.520;6.764;2023-01-19T14:58:33;22.02;;;10.10;;
26502;SDS011;14177;51.520;6.764;2023-01-19T15:01:07;19.00;;;9.90;;
26502;SDS011;14177;51.520;6.764;2023-01-19T15:03:45;20.45;;;10.35;;
26502;SDS011;14177;51.520;6.764;2023-01-19T15:06:16;22.23;;;9.05;;
26502;SDS011;14177;51.520;6.764;2023-01-19T15:08:54;21.40;;;10.10;;
26502;SDS011;14177;51.520;6.764;2023-01-19T15:14:00;15.70;;;8.52;;
26502;SDS011;14177;51.520;6.764;2023-01-19T15:16:31;16.48;;;8.35;;
26502;SDS011;14177;51.520;6.764;2023-01-19T15:19:05;17.05;;;8.10;;
26502;SDS011;14177;51.520;6.764;2023-01-19T15:21:53;16.65;;;8.15;;
26502;SDS011;14177;51.520;6.764;2023-01-19T15:24:20;17.05;;;9.00;;
26502;SDS011;14177;51.520;6.764;2023-01-19T15:26:53;22.13;;;10.00;;
26502;SDS011;14177;51.520;6.764;2023-01-19T15:31:59;18.27;;;8.10;;
26502;SDS011;14177;51.520;6.764;2023-01-19T15:34:29;18.23;;;8.10;;
26502;SDS011;14177;51.520;6.764;2023-01-19T15:36:56;19.38;;;9.40;;
26502;SDS011;14177;51.520;6.764;2023-01-19T15:39:26;16.17;;;8.63;;
26502;SDS011;14177;51.520;6.764;2023-01-19T15:41:58;16.45;;;8.68;;
26502;SDS011;14177;51.520;6.764;2023-01-19T15:44:34;20.38;;;9.98;;
26502;SDS011;14177;51.520;6.764;2023-01-19T15:47:18;20.02;;;10.25;;
26502;SDS011;14177;51.520;6.764;2023-01-19T15:49:48;25.08;;;9.32;;
26502;SDS011;14177;51.520;6.764;2023-01-19T15:52:32;20.38;;;9.82;;
26502;SDS011;14177;51.520;6.764;2023-01-19T15:55:24;20.52;;;9.57;;
26502;SDS011;14177;51.520;6.764;2023-01-19T15:58:00;22.67;;;9.95;;
26502;SDS011;14177;51.520;6.764;2023-01-19T16:00:41;22.20;;;10.00;;
26502;SDS011;14177;51.520;6.764;2023-01-19T16:03:24;18.05;;;8.85;;
26502;SDS011;14177;51.520;6.764;2023-01-19T16:05:54;14.95;;;7.60;;
26502;SDS011;14177;51.520;6.764;2023-01-19T16:08:30;21.67;;;9.75;;
26502;SDS011;14177;51.520;6.764;2023-01-19T16:11:15;27.10;;;9.23;;
26502;SDS011;14177;51.520;6.764;2023-01-19T16:13:45;19.05;;;8.15;;
26502;SDS011;14177;51.520;6.764;2023-01-19T16:16:14;17.50;;;8.82;;
26502;SDS011;14177;51.520;6.764;2023-01-19T16:18:45;23.20;;;9.50;;
26502;SDS011;14177;51.520;6.764;2023-01-19T16:21:15;19.65;;;8.73;;
26502;SDS011;14177;51.520;6.764;2023-01-19T16:23:43;20.35;;;8.45;;
26502;SDS011;14177;51.520;6.764;2023-01-19T16:26:27;16.05;;;8.80;;
26502;SDS011;14177;51.520;6.764;2023-01-19T16:29:04;19.23;;;9.18;;
26502;SDS011;14177;51.520;6.764;2023-01-19T16:31:41;17.42;;;9.93;;
26502;SDS011;14177;51.520;6.764;2023-01-19T16:34:10;21.05;;;9.18;;
26502;SDS011;14177;51.520;6.764;2023-01-19T16:36:41;18.27;;;9.85;;
26502;SDS011;14177;51.520;6.764;2023-01-19T16:39:12;18.38;;;8.93;;
26502;SDS011;14177;51.520;6.764;2023-01-19T16:41:42;18.70;;;9.57;;
26502;SDS011;14177;51.520;6.764;2023-01-19T16:44:14;21.23;;;9.45;;
26502;SDS011;14177;51.520;6.764;2023-01-19T16:46:44;20.98;;;10.48;;
26502;SDS011;14177;51.520;6.764;2023-01-19T16:49:18;16.15;;;8.95;;
26502;SDS011;14177;51.520;6.764;2023-01-19T16:51:48;24.13;;;10.20;;
26502;SDS011;14177;51.520;6.764;2023-01-19T16:54:19;23.45;;;10.20;;
26502;SDS011;14177;51.520;6.764;2023-01-19T16:56:51;20.08;;;10.88;;
26502;SDS011;14177;51.520;6.764;2023-01-19T16:59:20;21.13;;;10.60;;
26502;SDS011;14177;51.520;6.764;2023-01-19T17:01:48;19.90;;;9.23;;
26502;SDS011;14177;51.520;6.764;2023-01-19T17:04:18;20.35;;;9.82;;
26502;SDS011;14177;51.520;6.764;2023-01-19T17:06:47;19.30;;;10.88;;
26502;SDS011;14177;51.520;6.764;2023-01-19T17:09:17;22.92;;;11.70;;
26502;SDS011;14177;51.520;6.764;2023-01-19T17:11:44;22.25;;;11.38;;
26502;SDS011;14177;51.520;6.764;2023-01-19T17:14:15;22.63;;;10.90;;
26502;SDS011;14177;51.520;6.764;2023-01-19T17:16:48;24.40;;;11.45;;
26502;SDS011;14177;51.520;6.764;2023-01-19T17:19:16;28.88;;;11.63;;
26502;SDS011;14177;51.520;6.764;2023-01-19T17:21:46;22.27;;;12.32;;
26502;SDS011;14177;51.520;6.764;2023-01-19T17:24:16;24.60;;;12.48;;
26502;SDS011;14177;51.520;6.764;2023-01-19T17:26:44;22.67;;;12.35;;
26502;SDS011;14177;51.520;6.764;2023-01-19T17:29:14;27.20;;;12.80;;
26502;SDS011;14177;51.520;6.764;2023-01-19T17:31:46;26.25;;;11.77;;
26502;SDS011;14177;51.520;6.764;2023-01-19T17:34:16;25.20;;;12.50;;
26502;SDS011;14177;51.520;6.764;2023-01-19T17:36:44;27.98;;;13.43;;
26502;SDS011;14177;51.520;6.764;2023-01-19T17:39:11;31.85;;;12.52;;
26502;SDS011;14177;51.520;6.764;2023-01-19T17:41:40;35.05;;;15.88;;
26502;SDS011;14177;51.520;6.764;2023-01-19T17:44:07;24.20;;;10.85;;
26502;SDS011;14177;51.520;6.764;2023-01-19T17:46:36;23.20;;;11.75;;
26502;SDS011;14177;51.520;6.764;2023-01-19T17:49:05;28.23;;;12.95;;
26502;SDS011;14177;51.520;6.764;2023-01-19T17:51:33;27.08;;;11.63;;
26502;SDS011;14177;51.520;6.764;2023-01-19T17:54:02;24.70;;;11.32;;
26502;SDS011;14177;51.520;6.764;2023-01-19T17:56:31;26.02;;;11.70;;
26502;SDS011;14177;51.520;6.764;2023-01-19T17:59:02;26.75;;;12.23;;
26502;SDS011;14177;51.520;6.764;2023-01-19T18:01:32;35.38;;;12.73;;
26502;SDS011;14177;51.520;6.764;2023-01-19T18:04:05;30.05;;;12.40;;
26502;SDS011;14177;51.520;6.764;2023-01-19T18:06:34;26.92;;;12.70;;
26502;SDS011;14177;51.520;6.764;2023-01-19T18:09:02;26.45;;;12.70;;
26502;SDS011;14177;51.520;6.764;2023-01-19T18:11:32;25.48;;;12.68;;
26502;SDS011;14177;51.520;6.764;2023-01-19T18:14:00;26.70;;;13.23;;
26502;SDS011;14177;51.520;6.764;2023-01-19T18:16:28;31.75;;;14.02;;
26502;SDS011;14177;51.520;6.764;2023-01-19T18:19:00;22.73;;;12.68;;
26502;SDS011;14177;51.520;6.764;2023-01-19T18:21:31;26.02;;;12.85;;
26502;SDS011;14177;51.520;6.764;2023-01-19T18:24:01;26.60;;;13.07;;
26502;SDS011;14177;51.520;6.764;2023-01-19T18:26:31;29.65;;;13.48;;
26502;SDS011;14177;51.520;6.764;2023-01-19T18:29:07;24.17;;;13.18;;
26502;SDS011;14177;51.520;6.764;2023-01-19T18:31:35;33.72;;;15.13;;
26502;SDS011;14177;51.520;6.764;2023-01-19T18:34:03;24.98;;;13.40;;
26502;SDS011;14177;51.520;6.764;2023-01-19T18:36:30;27.23;;;13.60;;